Time;durP1;ratioP1;P1;durP2;ratioP2;P2;SDS_P1;SDS_P2;PMS_P1;PMS_P2;Temp;Humidity;BMP_temperature;BMP_pressure;BME280_temperature;BME280_humidity;BME280_pressure;Samples;Min_cycle;Max_cycle;Signal;HPM_P1;HPM_P2
2021/12/10 00:01:55;;;;;;;5.90;2.70;;;;;;;1.76;90.90;99446.52;102944;1352;59039;-81
2021/12/10 00:04:29;;;;;;;4.50;2.70;;;;;;;1.77;90.98;99441.56;102763;1349;61774;-80
2021/12/10 00:07:00;;;;;;;4.30;1.90;;;;;;;1.80;90.86;99430.60;102778;1348;75290;-80
2021/12/10 00:09:31;;;;;;;13.20;4.20;;;;;;;1.82;90.86;99428.73;102930;1349;72457;-81
2021/12/10 00:12:06;;;;;;;6.30;3.90;;;;;;;1.87;90.74;99426.79;102252;1352;74445;-81
2021/12/10 00:14:35;;;;;;;;;;;;;;;1.92;90.61;99416.69;102942;1352;63043;-80
2021/12/10 00:17:05;;;;;;;6.70;3.60;;;;;;;1.96;90.55;99415.95;102925;1348;60443;-80
2021/12/10 00:19:47;;;;;;;4.40;2.60;;;;;;;2.00;90.36;99419.80;102996;1350;74872;-82
2021/12/10 00:22:25;;;;;;;7.90;3.30;;;;;;;2.00;90.36;99413.64;102482;1348;71311;-82
2021/12/10 00:24:52;;;;;;;5.30;3.00;;;;;;;2.00;90.19;99417.13;102958;1349;71760;-81
2021/12/10 00:27:31;;;;;;;9.30;3.40;;;;;;;1.99;90.04;99414.56;102895;1351;59867;-79
2021/12/10 00:30:07;;;;;;;6.30;3.60;;;;;;;2.00;89.96;99410.85;102456;1351;61081;-81
2021/12/10 00:38:01;;;;;;;11.70;4.00;;;;;;;1.98;90.04;99401.16;102720;1335;72654;-82
2021/12/10 00:40:28;;;;;;;6.80;3.40;;;;;;;1.96;90.04;99391.19;102942;1347;58803;-82
2021/12/10 00:42:56;;;;;;;4.60;2.40;;;;;;;1.95;90.19;99392.14;102884;1348;59998;-80
2021/12/10 00:45:24;;;;;;;7.90;2.90;;;;;;;1.94;90.24;99378.91;102719;1347;75204;-79
2021/12/10 00:47:51;;;;;;;7.50;2.70;;;;;;;1.92;90.31;99374.68;102690;1348;71205;-82
2021/12/10 00:50:23;;;;;;;7.80;3.50;;;;;;;1.89;90.33;99368.02;102905;1351;72669;-84
2021/12/10 00:52:51;;;;;;;14.30;4.40;;;;;;;1.87;90.39;99367.36;102935;1354;61315;-82
2021/12/10 00:55:18;;;;;;;4.50;2.90;;;;;;;1.82;90.54;99365.59;102990;1346;59812;-82
2021/12/10 00:57:45;;;;;;;9.00;3.40;;;;;;;1.85;90.73;99376.27;102132;1352;75479;-83
2021/12/10 01:00:17;;;;;;;9.40;4.70;;;;;;;1.85;90.91;99378.33;102653;1350;71545;-81
2021/12/10 01:02:44;;;;;;;8.80;3.80;;;;;;;1.86;90.95;99374.94;102887;1351;74183;-82
2021/12/10 01:05:14;;;;;;;8.30;4.40;;;;;;;1.86;91.03;99373.36;102805;1351;61108;-81
2021/12/10 01:07:42;;;;;;;10.00;3.00;;;;;;;1.85;91.16;99368.74;102665;1354;60934;-81
2021/12/10 01:10:17;;;;;;;5.80;2.80;;;;;;;1.82;91.48;99367.14;102865;1348;75127;-80
2021/12/10 01:12:48;;;;;;;5.60;3.20;;;;;;;1.78;91.60;99359.72;102782;1350;72326;-79
2021/12/10 01:23:55;;;;;;;;;;;;;;;1.77;92.10;99336.99;102775;1351;74858;-79
2021/12/10 01:29:15;;;;;;;7.40;3.70;;;;;;;1.77;92.21;99328.74;102640;1349;71895;-80
2021/12/10 01:31:43;;;;;;;8.00;3.50;;;;;;;1.78;92.44;99324.96;102824;1351;59763;-81
2021/12/10 01:34:11;;;;;;;8.20;3.00;;;;;;;1.80;92.60;99319.28;101743;1355;60464;-80
2021/12/10 01:36:38;;;;;;;7.40;3.60;;;;;;;1.79;92.56;99313.05;101975;1335;74206;-79
2021/12/10 01:39:08;;;;;;;7.20;3.00;;;;;;;1.81;92.60;99308.48;102727;1335;73892;-82
2021/12/10 01:41:39;;;;;;;14.50;5.60;;;;;;;1.83;92.48;99305.19;102946;1349;73088;-81
2021/12/10 01:44:15;;;;;;;10.40;4.40;;;;;;;1.87;92.47;99302.20;102884;1345;61641;-81
2021/12/10 01:46:45;;;;;;;12.30;4.30;;;;;;;1.89;92.21;99299.67;102836;1348;60636;-81
2021/12/10 01:49:14;;;;;;;12.60;5.70;;;;;;;1.92;92.15;99297.96;102942;1344;75049;-83
2021/12/10 01:51:43;;;;;;;10.10;4.60;;;;;;;1.95;91.97;99299.80;102942;1345;72779;-79
2021/12/10 01:54:20;;;;;;;5.10;3.20;;;;;;;1.96;91.93;99292.14;102630;1348;74373;-81
2021/12/10 01:56:50;;;;;;;6.70;3.90;;;;;;;1.97;91.85;99285.31;102959;1351;61015;-81
2021/12/10 01:59:18;;;;;;;9.10;3.60;;;;;;;1.99;91.88;99282.16;102987;1345;60676;-81
2021/12/10 02:01:49;;;;;;;6.70;2.90;;;;;;;1.99;91.86;99276.70;102765;1350;75144;-78
2021/12/10 02:04:21;;;;;;;5.90;2.10;;;;;;;2.00;91.77;99275.73;102815;1350;72002;-80
2021/12/10 02:06:48;;;;;;;7.40;3.10;;;;;;;1.99;91.62;99274.23;102916;1348;72963;-78
2021/12/10 02:09:14;;;;;;;7.40;4.30;;;;;;;1.99;91.51;99272.02;102892;1345;61195;-78
2021/12/10 02:11:43;;;;;;;12.70;5.30;;;;;;;1.99;91.33;99273.00;102830;1344;60461;-78
2021/12/10 02:14:10;;;;;;;8.10;4.30;;;;;;;1.99;91.36;99274.67;102372;1349;75183;-81
2021/12/10 02:16:37;;;;;;;9.50;4.00;;;;;;;2.00;91.41;99279.19;102937;1345;70431;-82
2021/12/10 02:19:07;;;;;;;6.50;4.20;;;;;;;2.03;91.71;99283.23;102834;1349;72974;-81
2021/12/10 02:21:34;;;;;;;8.30;4.50;;;;;;;2.06;91.87;99280.01;102950;1348;59294;-80
2021/12/10 02:24:03;;;;;;;8.90;3.80;;;;;;;2.09;91.87;99275.87;103002;1352;61458;-80
2021/12/10 02:26:38;;;;;;;8.80;4.20;;;;;;;2.13;91.82;99272.92;102986;1344;75166;-80
2021/12/10 02:29:06;;;;;;;7.60;4.00;;;;;;;2.13;91.47;99266.09;102881;1345;71667;-79
2021/12/10 02:31:33;;;;;;;7.60;2.60;;;;;;;2.12;91.20;99258.14;102889;1348;72991;-83
2021/12/10 02:34:01;;;;;;;7.30;3.60;;;;;;;2.09;91.18;99250.27;102633;1332;61856;-82
2021/12/10 02:39:33;;;;;;;9.80;5.40;;;;;;;2.02;91.11;99239.44;103447;1333;129867;-78
2021/12/10 02:42:00;;;;;;;8.30;4.40;;;;;;;2.02;91.16;99233.17;102429;1335;70802;-79
2021/12/10 02:44:30;;;;;;;14.30;5.30;;;;;;;2.02;91.22;99234.93;102889;1351;72986;-83
2021/12/10 02:46:58;;;;;;;8.30;4.70;;;;;;;2.01;91.21;99235.52;102840;1350;61257;-78
2021/12/10 02:49:26;;;;;;;10.70;4.60;;;;;;;2.01;91.30;99237.73;102031;1354;60803;-79
2021/12/10 02:51:53;;;;;;;8.90;4.10;;;;;;;2.02;91.40;99234.77;102919;1345;77026;-80
2021/12/10 02:54:31;;;;;;;9.40;4.50;;;;;;;2.02;91.63;99228.91;102934;1345;72638;-79
2021/12/10 02:56:59;;;;;;;7.90;4.40;;;;;;;2.04;91.52;99226.15;102489;1335;73089;-80
2021/12/10 02:59:25;;;;;;;6.30;4.30;;;;;;;2.02;91.51;99226.49;102765;1336;59891;-78
2021/12/10 03:01:52;;;;;;;7.00;3.80;;;;;;;2.01;91.31;99221.95;102935;1348;60604;-80
2021/12/10 03:04:19;;;;;;;7.80;3.80;;;;;;;1.98;91.32;99223.27;102901;1345;74998;-79
2021/12/10 03:06:50;;;;;;;6.30;3.50;;;;;;;1.95;91.47;99219.92;101991;1345;71412;-82
2021/12/10 03:09:19;;;;;;;7.40;3.70;;;;;;;1.92;91.64;99222.61;102704;1347;74020;-81
2021/12/10 03:11:48;;;;;;;7.90;4.20;;;;;;;1.92;91.71;99219.19;102908;1348;63106;-78
2021/12/10 03:14:18;;;;;;;8.60;3.70;;;;;;;1.91;91.87;99213.36;102694;1345;60475;-79
2021/12/10 03:16:48;;;;;;;11.70;4.80;;;;;;;1.90;91.95;99206.86;102898;1348;74069;-80
2021/12/10 03:19:19;;;;;;;7.60;3.90;;;;;;;1.88;92.10;99202.66;102875;1343;71501;-80
2021/12/10 03:21:46;;;;;;;8.90;3.80;;;;;;;1.87;92.16;99202.42;102870;1348;74004;-81
2021/12/10 03:24:18;;;;;;;5.80;3.50;;;;;;;1.86;92.41;99194.73;102812;1347;61257;-81
2021/12/10 03:26:45;;;;;;;9.10;4.50;;;;;;;1.84;92.37;99192.40;102888;1348;60372;-79
2021/12/10 03:29:12;;;;;;;10.30;4.40;;;;;;;1.84;92.33;99191.98;102855;1342;74834;-78
2021/12/10 03:31:39;;;;;;;10.70;5.00;;;;;;;1.84;92.40;99193.16;102998;1351;72441;-83
2021/12/10 03:34:07;;;;;;;9.60;4.00;;;;;;;1.85;92.53;99193.57;102110;1348;73722;-79
2021/12/10 03:36:33;;;;;;;6.10;3.70;;;;;;;1.85;92.63;99196.14;102844;1349;59923;-82
2021/12/10 03:39:04;;;;;;;11.10;4.60;;;;;;;1.86;92.69;99195.06;102901;1347;61397;-80
2021/12/10 03:41:31;;;;;;;6.50;3.80;;;;;;;1.88;92.80;99198.84;102942;1348;76228;-80
2021/12/10 03:43:57;;;;;;;5.00;2.80;;;;;;;1.92;92.68;99199.34;102805;1347;72534;-80
2021/12/10 03:46:24;;;;;;;9.90;5.10;;;;;;;1.95;92.55;99198.70;102875;1348;72952;-79
2021/12/10 03:48:53;;;;;;;10.50;5.30;;;;;;;1.98;92.34;99195.52;102764;1348;62276;-80
2021/12/10 03:51:25;;;;;;;12.90;6.30;;;;;;;2.02;92.37;99191.48;102311;1351;61736;-81
2021/12/10 03:53:52;;;;;;;11.30;5.40;;;;;;;2.05;92.29;99184.44;102795;1335;76278;-80
2021/12/10 03:56:22;;;;;;;12.00;5.20;;;;;;;2.10;92.33;99184.09;102904;1345;72644;-78
2021/12/10 03:58:50;;;;;;;9.00;4.40;;;;;;;2.12;92.19;99183.38;102849;1346;76296;-80
2021/12/10 04:01:25;;;;;;;9.60;4.10;;;;;;;2.14;92.11;99183.85;101980;1352;60890;-80
2021/12/10 04:03:54;;;;;;;9.00;4.60;;;;;;;2.13;92.09;99176.65;102455;1347;61997;-80
2021/12/10 04:06:22;;;;;;;6.50;3.40;;;;;;;2.17;92.04;99183.01;102824;1348;74976;-82
2021/12/10 04:08:53;;;;;;;8.10;3.30;;;;;;;2.18;91.93;99179.97;102903;1347;70368;-82
2021/12/10 04:11:22;;;;;;;12.20;4.20;;;;;;;2.18;91.87;99177.71;102233;1353;74282;-81
2021/12/10 04:13:52;;;;;;;8.50;5.00;;;;;;;2.19;91.80;99173.75;102767;1345;62524;-80
2021/12/10 04:16:22;;;;;;;9.80;4.80;;;;;;;2.20;91.72;99176.02;102901;1345;62079;-80
2021/12/10 04:18:53;;;;;;;7.70;4.60;;;;;;;2.21;91.76;99171.18;102879;1341;74277;-79
2021/12/10 04:21:21;;;;;;;9.00;3.90;;;;;;;2.23;91.73;99164.36;102891;1351;70713;-77
2021/12/10 04:23:48;;;;;;;8.20;3.50;;;;;;;2.24;91.61;99162.85;102811;1348;74342;-80
2021/12/10 04:26:19;;;;;;;8.70;4.10;;;;;;;2.23;91.54;99161.05;102866;1348;59888;-81
2021/12/10 04:28:46;;;;;;;6.30;3.70;;;;;;;2.22;91.53;99156.34;102391;1345;60320;-78
2021/12/10 04:31:13;;;;;;;6.20;3.90;;;;;;;2.21;91.61;99153.62;102409;1339;74989;-82
2021/12/10 04:33:40;;;;;;;8.40;3.40;;;;;;;2.22;91.55;99152.52;102478;1335;73747;-78
2021/12/10 04:36:08;;;;;;;4.90;2.20;;;;;;;2.22;91.57;99149.64;102876;1332;72109;-80
2021/12/10 04:38:34;;;;;;;8.30;3.70;;;;;;;2.23;91.43;99149.92;102940;1344;61318;-79
2021/12/10 04:41:05;;;;;;;7.10;4.00;;;;;;;2.24;91.57;99143.52;102648;1344;60733;-79
2021/12/10 04:43:35;;;;;;;8.90;3.90;;;;;;;2.26;91.40;99139.20;102914;1335;75249;-83
2021/12/10 04:46:06;;;;;;;6.90;2.90;;;;;;;2.27;91.34;99136.08;102540;1335;74460;-81
2021/12/10 04:49:02;;;;;;;4.40;2.70;;;;;;;2.29;91.12;99135.53;102917;1345;73969;-81
2021/12/10 04:51:33;;;;;;;8.40;3.80;;;;;;;2.31;91.28;99134.28;102945;1345;59614;-80
2021/12/10 04:54:00;;;;;;;6.00;2.90;;;;;;;2.30;91.10;99130.36;102834;1344;61532;-82
2021/12/10 04:56:27;;;;;;;9.90;4.30;;;;;;;2.30;91.12;99130.36;102923;1347;75068;-79
2021/12/10 04:58:55;;;;;;;6.40;3.20;;;;;;;2.30;91.08;99131.48;102840;1351;71725;-83
2021/12/10 05:01:23;;;;;;;8.30;3.40;;;;;;;2.30;91.16;99131.96;102948;1347;74044;-81
2021/12/10 05:03:50;;;;;;;9.10;3.70;;;;;;;2.30;91.14;99133.37;102847;1349;60770;-79
2021/12/10 05:06:17;;;;;;;9.10;4.00;;;;;;;2.31;91.27;99131.23;102923;1344;60651;-82
2021/12/10 05:08:44;;;;;;;6.90;3.20;;;;;;;2.30;91.25;99126.02;102538;1344;76013;-80
2021/12/10 05:11:12;;;;;;;11.20;2.70;;;;;;;2.29;91.10;99124.72;102785;1345;72500;-79
2021/12/10 05:13:42;;;;;;;5.90;2.80;;;;;;;2.28;91.12;99121.20;102928;1348;73012;-79
2021/12/10 05:16:10;;;;;;;8.10;3.90;;;;;;;2.26;91.23;99120.54;102290;1345;251829;-79
2021/12/10 05:18:43;;;;;;;4.50;2.40;;;;;;;2.24;91.32;99118.94;102388;1351;61440;-81
2021/12/10 05:21:12;;;;;;;5.50;2.90;;;;;;;2.23;91.29;99115.52;102930;1345;75018;-78
2021/12/10 05:23:39;;;;;;;4.90;3.00;;;;;;;2.22;91.39;99113.02;102851;1351;71195;-83
2021/12/10 05:26:07;;;;;;;10.10;4.40;;;;;;;2.22;91.22;99110.91;102918;1345;72994;-79
2021/12/10 05:28:35;;;;;;;6.60;3.30;;;;;;;2.23;91.19;99107.05;102908;1351;61604;-81
2021/12/10 05:31:03;;;;;;;5.30;2.60;;;;;;;2.24;91.21;99105.92;102889;1349;61523;-81
2021/12/10 05:33:32;;;;;;;9.00;4.20;;;;;;;2.23;91.11;99093.71;102799;1345;74129;-82
2021/12/10 05:36:01;;;;;;;7.70;3.60;;;;;;;2.23;91.19;99087.30;102476;1352;72451;-81
2021/12/10 05:38:31;;;;;;;7.60;3.70;;;;;;;2.22;91.30;99086.84;102268;1352;74497;-83
2021/12/10 05:40:59;;;;;;;8.80;3.80;;;;;;;2.22;91.37;99082.13;102874;1345;60536;-82
2021/12/10 05:43:29;;;;;;;7.90;4.40;;;;;;;2.22;91.40;99075.33;102241;1349;60723;-82
2021/12/10 05:45:55;;;;;;;7.10;4.20;;;;;;;2.22;91.36;99071.70;102829;1345;74995;-81
2021/12/10 05:48:23;;;;;;;3.60;1.80;;;;;;;2.22;91.49;99066.80;102885;1347;71433;-79
2021/12/10 05:50:50;;;;;;;7.30;4.20;;;;;;;2.21;91.60;99067.67;102787;1348;73044;-79
2021/12/10 05:53:17;;;;;;;7.50;3.70;;;;;;;2.18;91.81;99069.31;102832;1349;60748;-81
2021/12/10 05:55:47;;;;;;;5.00;3.50;;;;;;;2.16;91.93;99064.50;102140;1348;61856;-82
2021/12/10 05:58:14;;;;;;;7.80;4.10;;;;;;;2.15;91.99;99063.72;102888;1350;74990;-82
2021/12/10 06:00:44;;;;;;;8.10;4.20;;;;;;;2.15;92.03;99064.08;102849;1348;71727;-80
2021/12/10 06:03:11;;;;;;;4.40;2.70;;;;;;;2.16;92.10;99061.77;102894;1345;74581;-81
2021/12/10 06:05:39;;;;;;;10.20;4.70;;;;;;;2.16;92.04;99060.12;102878;1349;62502;-79
2021/12/10 06:08:06;;;;;;;8.90;3.50;;;;;;;2.18;92.10;99056.86;102061;1353;61662;-80
2021/12/10 06:10:34;;;;;;;5.50;2.90;;;;;;;2.18;92.21;99052.41;102887;1347;76102;-79
2021/12/10 06:13:01;;;;;;;6.40;3.40;;;;;;;2.21;92.27;99049.66;102947;1345;70812;-83
2021/12/10 06:15:28;;;;;;;9.60;4.10;;;;;;;2.24;91.96;99046.71;102869;1345;74328;-83
2021/12/10 06:17:55;;;;;;;9.20;3.80;;;;;;;2.25;91.85;99043.67;102413;1348;60268;-82
2021/12/10 06:20:26;;;;;;;6.80;3.60;;;;;;;2.28;91.65;99040.61;102157;1348;61952;-83
2021/12/10 06:22:52;;;;;;;6.00;3.90;;;;;;;2.31;91.53;99040.12;102922;1347;75038;-81
2021/12/10 06:25:19;;;;;;;5.00;2.30;;;;;;;2.33;91.51;99043.84;102824;1345;60146;-83
2021/12/10 06:27:46;;;;;;;4.60;2.90;;;;;;;2.35;91.27;99037.24;102729;1347;74205;-81
2021/12/10 06:30:16;;;;;;;6.40;2.80;;;;;;;2.35;91.14;99035.99;102790;1345;62572;-83
2021/12/10 06:32:45;;;;;;;5.40;3.00;;;;;;;2.34;91.00;99035.61;102864;1347;60704;-79
2021/12/10 06:35:14;;;;;;;6.50;3.20;;;;;;;2.30;91.06;99034.92;102516;1352;74953;-82
2021/12/10 06:37:42;;;;;;;4.20;2.50;;;;;;;2.26;91.21;99032.63;102242;1351;71450;-80
2021/12/10 06:40:11;;;;;;;5.60;2.80;;;;;;;2.23;91.35;99030.83;102907;1345;74317;-81
2021/12/10 06:42:38;;;;;;;9.40;3.60;;;;;;;2.22;91.37;99029.64;102841;1345;61188;-81
2021/12/10 06:45:09;;;;;;;10.80;4.80;;;;;;;2.24;91.33;99027.42;102638;1332;61084;-80
2021/12/10 06:47:40;;;;;;;14.90;4.40;;;;;;;2.27;91.50;99025.20;102529;1335;76831;-79
2021/12/10 06:50:08;;;;;;;13.50;4.80;;;;;;;2.36;92.73;99029.77;102830;1347;74034;-80
2021/12/10 06:52:34;;;;;;;9.60;4.70;;;;;;;2.47;92.61;99021.87;102506;1347;72868;-80
2021/12/10 06:55:01;;;;;;;7.90;3.50;;;;;;;2.49;91.12;99027.01;102817;1348;59082;-80
2021/12/10 06:57:28;;;;;;;8.30;3.70;;;;;;;2.46;90.40;99030.83;102726;1354;61749;-80
2021/12/10 06:59:55;;;;;;;7.20;4.10;;;;;;;2.43;90.48;99029.73;102825;1347;75915;-81
2021/12/10 07:02:22;;;;;;;7.90;3.50;;;;;;;2.42;90.53;99030.05;102592;1347;71496;-81
2021/12/10 07:04:48;;;;;;;7.20;4.30;;;;;;;2.41;90.54;99025.58;102808;1347;74176;-81
2021/12/10 07:07:15;;;;;;;7.40;3.80;;;;;;;2.41;90.45;99020.64;102837;1351;61590;-80
2021/12/10 07:09:42;;;;;;;5.70;3.50;;;;;;;2.42;90.48;99020.08;102470;1347;60364;-80
2021/12/10 07:12:09;;;;;;;6.60;3.60;;;;;;;2.42;90.31;99021.45;102839;1348;74242;-80
2021/12/10 07:14:36;;;;;;;7.70;4.10;;;;;;;2.43;90.29;99025.99;102838;1348;71731;-80
2021/12/10 07:17:03;;;;;;;7.60;3.50;;;;;;;2.46;90.40;99030.48;102549;1347;74051;-79
2021/12/10 07:19:30;;;;;;;4.10;2.30;;;;;;;2.48;90.49;99031.81;102914;1342;60595;-80
2021/12/10 07:21:56;;;;;;;7.20;4.00;;;;;;;2.50;90.47;99033.38;102529;1350;60828;-80
2021/12/10 07:24:23;;;;;;;7.00;2.80;;;;;;;2.50;90.41;99034.36;102841;1347;76092;-79
2021/12/10 07:26:51;;;;;;;6.40;2.60;;;;;;;2.53;90.39;99029.63;102501;1352;71492;-83
2021/12/10 07:29:17;;;;;;;8.00;4.30;;;;;;;2.54;90.14;99023.50;102840;1351;73875;-80
2021/12/10 07:31:45;;;;;;;6.80;3.90;;;;;;;2.58;90.20;99019.09;102741;1347;61220;-81
2021/12/10 07:34:13;;;;;;;7.50;4.70;;;;;;;2.62;90.01;99018.17;102666;1350;60399;-81
2021/12/10 07:36:40;;;;;;;7.20;3.60;;;;;;;2.65;89.72;99020.63;101982;1351;76226;-83
2021/12/10 07:39:08;;;;;;;6.20;3.40;;;;;;;2.68;89.57;99013.78;101811;1356;72627;-81
2021/12/10 07:41:36;;;;;;;12.80;6.30;;;;;;;2.71;89.46;99013.15;102782;1347;72998;-80
2021/12/10 07:44:03;;;;;;;6.60;3.20;;;;;;;2.74;89.07;99013.33;102706;1352;61215;-81
2021/12/10 07:46:32;;;;;;;9.50;4.80;;;;;;;2.78;89.05;99007.52;102619;1348;60844;-82
2021/12/10 07:49:02;;;;;;;4.50;2.60;;;;;;;2.80;88.84;99005.95;101916;1354;75016;-81
2021/12/10 07:51:31;;;;;;;7.50;4.00;;;;;;;2.83;88.71;99000.70;101703;1361;73368;-82
2021/12/10 07:53:59;;;;;;;6.70;3.70;;;;;;;2.83;88.68;98998.57;102742;1349;73008;-82
2021/12/10 07:56:33;;;;;;;8.70;4.20;;;;;;;2.83;88.61;98998.67;102660;1348;59970;-81
2021/12/10 07:59:00;;;;;;;5.80;3.00;;;;;;;2.85;88.78;98996.77;101772;1357;61664;-79
2021/12/10 08:01:29;;;;;;;3.70;2.40;;;;;;;2.85;88.82;98993.58;102810;1347;75087;-79
2021/12/10 08:03:58;;;;;;;8.50;3.40;;;;;;;2.85;88.62;98992.45;102561;1350;72551;-80
2021/12/10 08:06:27;;;;;;;5.90;2.70;;;;;;;2.85;88.60;98993.63;102501;1348;73193;-80
2021/12/10 08:08:54;;;;;;;6.50;4.00;;;;;;;2.88;88.63;98991.55;102770;1350;61648;-79
2021/12/10 08:11:24;;;;;;;15.50;6.90;;;;;;;2.91;88.54;98988.43;102220;1347;62320;-81
2021/12/10 08:13:51;;;;;;;8.20;4.10;;;;;;;2.97;88.54;98983.31;101631;1351;76228;-80
2021/12/10 08:16:18;;;;;;;5.50;2.80;;;;;;;3.00;87.99;98980.70;101752;1357;71556;-81
2021/12/10 08:18:45;;;;;;;5.60;2.50;;;;;;;3.01;87.92;98973.74;102671;1350;74340;-81
2021/12/10 08:21:12;;;;;;;5.80;3.40;;;;;;;3.03;87.91;98973.39;102782;1347;60088;-79
2021/12/10 08:23:42;;;;;;;2.90;1.50;;;;;;;3.04;87.69;98966.45;102397;1350;61509;-80
2021/12/10 08:28:39;;;;;;;7.30;4.30;;;;;;;3.04;86.82;98965.59;102712;1335;71797;-79
2021/12/10 08:31:07;;;;;;;7.60;3.70;;;;;;;3.03;86.74;98960.90;102833;1344;74744;-79
2021/12/10 08:33:33;;;;;;;5.40;3.10;;;;;;;3.03;86.65;98965.69;102830;1348;62276;-80
2021/12/10 08:36:07;;;;;;;5.70;2.40;;;;;;;3.02;86.61;98969.79;102977;1345;60551;-79
2021/12/10 08:38:33;;;;;;;7.20;3.10;;;;;;;3.02;86.54;98971.89;102778;1345;76320;-80
2021/12/10 08:41:07;;;;;;;7.90;4.00;;;;;;;3.03;86.87;98970.52;102287;1347;71759;-79
2021/12/10 08:43:35;;;;;;;5.00;2.80;;;;;;;3.06;87.12;98970.36;102863;1350;73060;-79
2021/12/10 08:46:04;;;;;;;6.00;3.00;;;;;;;3.09;87.04;98970.11;102938;1345;60209;-80
2021/12/10 08:48:32;;;;;;;4.10;2.20;;;;;;;3.09;86.82;98966.05;102874;1346;60748;-79
2021/12/10 08:51:04;;;;;;;4.10;2.60;;;;;;;3.08;86.77;98967.59;102827;1345;75097;-80
2021/12/10 08:53:31;;;;;;;4.60;2.50;;;;;;;3.05;86.75;98961.91;102920;1349;72566;-79
2021/12/10 08:55:59;;;;;;;8.00;3.50;;;;;;;3.03;86.70;98958.64;102747;1348;74068;-79
2021/12/10 08:58:27;;;;;;;5.90;3.70;;;;;;;3.04;86.67;98962.26;102960;1351;61618;-80
2021/12/10 09:01:13;;;;;;;10.90;4.70;;;;;;;3.05;86.45;98955.42;102778;1347;61544;-79
2021/12/10 09:03:44;;;;;;;5.30;3.40;;;;;;;3.10;86.54;98957.00;102945;1345;74777;-80
2021/12/10 09:06:11;;;;;;;6.10;3.00;;;;;;;3.13;86.36;98952.91;102898;1351;71560;-80
2021/12/10 09:08:38;;;;;;;7.50;3.30;;;;;;;3.14;86.12;98953.29;102955;1344;73064;-81
2021/12/10 09:13:40;;;;;;;9.20;3.60;;;;;;;3.16;86.13;98953.78;102740;1351;60383;-75
2021/12/10 09:16:19;;;;;;;5.90;3.10;;;;;;;3.17;85.88;98946.84;102783;1347;76465;-75
2021/12/10 09:18:46;;;;;;;6.00;3.50;;;;;;;3.17;85.88;98949.41;102887;1348;71615;-74
2021/12/10 09:21:15;;;;;;;7.10;3.50;;;;;;;3.18;85.89;98951.09;102668;1347;72705;-74
2021/12/10 09:24:01;;;;;;;10.60;4.30;;;;;;;3.18;85.78;98947.02;102716;1350;61543;-74
2021/12/10 09:26:27;;;;;;;8.70;4.20;;;;;;;3.21;85.85;98945.31;102793;1347;60887;-76
2021/12/10 09:28:57;;;;;;;10.00;4.70;;;;;;;3.24;85.94;98946.73;102920;1348;76054;-75
2021/12/10 09:31:24;;;;;;;8.70;3.90;;;;;;;3.25;85.89;98946.11;101930;1354;71647;-75
2021/12/10 09:33:54;;;;;;;9.10;4.60;;;;;;;3.25;85.65;98942.24;102642;1348;74098;-76
2021/12/10 09:36:21;;;;;;;8.50;3.60;;;;;;;3.25;85.94;98943.42;102085;1353;62476;-75
2021/12/10 09:38:50;;;;;;;11.10;5.00;;;;;;;3.23;85.35;98943.86;102885;1347;60661;-76
2021/12/10 09:41:21;;;;;;;12.50;4.80;;;;;;;3.21;85.27;98940.59;102849;1347;76325;-76
2021/12/10 09:43:54;;;;;;;6.90;3.30;;;;;;;3.20;85.24;98940.02;102177;1351;72683;-76
2021/12/10 09:46:21;;;;;;;8.00;4.10;;;;;;;3.17;85.61;98940.17;102882;1346;73972;-76
2021/12/10 09:48:49;;;;;;;10.40;3.90;;;;;;;3.16;85.76;98942.90;102827;1347;59200;-76
2021/12/10 09:51:30;;;;;;;6.70;4.10;;;;;;;3.16;86.01;98943.23;102867;1347;61578;-76
2021/12/10 09:54:01;;;;;;;9.30;4.30;;;;;;;3.16;85.88;98939.56;102868;1347;76241;-76
2021/12/10 09:56:28;;;;;;;9.50;4.90;;;;;;;3.17;85.74;98937.38;102885;1346;71630;-77
2021/12/10 09:58:56;;;;;;;11.60;4.80;;;;;;;3.17;85.43;98933.52;102469;1347;74158;-77
2021/12/10 10:01:29;;;;;;;9.10;4.60;;;;;;;3.20;85.62;98931.29;102780;1347;61783;-76
2021/12/10 10:04:01;;;;;;;12.00;5.40;;;;;;;3.22;85.58;98926.66;102712;1348;59747;-76
2021/12/10 10:06:34;;;;;;;15.20;6.60;;;;;;;3.25;85.60;98927.77;102719;1350;75003;-76
2021/12/10 10:09:08;;;;;;;11.40;5.20;;;;;;;3.29;85.91;98921.73;102852;1347;72601;-76
2021/12/10 10:12:05;;;;;;;9.00;4.80;;;;;;;3.33;86.04;98917.52;102865;1349;72828;-75
2021/12/10 10:14:32;;;;;;;8.70;4.00;;;;;;;3.35;85.87;98915.02;102806;1351;61224;-75
2021/12/10 10:16:59;;;;;;;6.90;3.60;;;;;;;3.37;86.06;98910.73;102874;1344;61615;-75
2021/12/10 10:19:26;;;;;;;9.00;4.10;;;;;;;3.38;85.68;98909.87;102865;1347;75050;-75
2021/12/10 10:21:56;;;;;;;9.00;3.90;;;;;;;3.40;85.77;98905.29;102783;1347;70675;-77
2021/12/10 10:24:26;;;;;;;9.00;4.20;;;;;;;3.41;85.91;98910.22;102340;1350;74041;-76
2021/12/10 10:27:05;;;;;;;8.70;4.80;;;;;;;3.44;85.78;98905.23;102179;1352;63090;-76
2021/12/10 10:29:36;;;;;;;10.80;4.70;;;;;;;3.47;85.86;98901.77;102786;1348;60634;-76
2021/12/10 10:32:10;;;;;;;9.60;4.60;;;;;;;3.51;85.66;98899.55;102731;1347;74055;-76
2021/12/10 10:34:49;;;;;;;8.50;4.30;;;;;;;3.56;85.75;98897.75;102860;1351;72689;-76
2021/12/10 10:37:16;;;;;;;10.80;4.90;;;;;;;3.63;85.49;98896.39;102003;1350;73066;-77
2021/12/10 10:39:44;;;;;;;11.60;5.00;;;;;;;3.70;85.42;98893.11;102734;1347;62444;-76
2021/12/10 10:42:18;;;;;;;12.80;4.80;;;;;;;3.79;85.19;98890.04;102811;1347;60623;-76
2021/12/10 10:44:57;;;;;;;8.50;4.30;;;;;;;3.90;85.56;98890.22;102896;1351;75003;-75
2021/12/10 10:47:24;;;;;;;9.00;4.20;;;;;;;4.01;85.09;98891.41;102763;1351;70693;-76
2021/12/10 10:50:13;;;;;;;8.60;3.40;;;;;;;4.12;85.10;98890.34;102466;1351;74061;-76
2021/12/10 10:52:48;;;;;;;10.20;3.70;;;;;;;4.23;84.73;98888.79;102871;1348;60932;-76
2021/12/10 10:55:26;;;;;;;11.30;4.50;;;;;;;4.31;84.18;98888.91;102845;1347;61678;-76
2021/12/10 10:58:02;;;;;;;13.10;5.90;;;;;;;4.42;83.35;98881.39;102689;1352;75163;-76
2021/12/10 11:00:57;;;;;;;14.70;5.90;;;;;;;4.53;83.25;98878.03;102833;1351;71511;-76
2021/12/10 11:03:59;;;;;;;10.90;3.70;;;;;;;4.71;82.10;98875.52;102835;1347;74791;-76
2021/12/10 11:06:36;;;;;;;6.90;3.60;;;;;;;4.81;81.50;98873.58;102766;1347;62009;-76
2021/12/10 11:09:17;;;;;;;7.80;4.10;;;;;;;4.91;81.23;98874.38;102887;1351;60640;-76
2021/12/10 11:11:52;;;;;;;5.20;3.30;;;;;;;4.98;80.62;98875.15;102614;1351;76500;-76
2021/12/10 11:14:42;;;;;;;5.60;3.10;;;;;;;5.03;80.18;98868.55;102886;1347;71273;-76
2021/12/10 11:17:22;;;;;;;6.70;3.60;;;;;;;5.10;80.30;98868.17;102516;1348;74203;-75
2021/12/10 11:19:57;;;;;;;5.90;3.50;;;;;;;5.17;79.79;98868.52;102883;1347;59925;-76
2021/12/10 11:22:33;;;;;;;7.30;3.10;;;;;;;5.12;79.53;98863.59;102861;1347;61784;-74
2021/12/10 11:25:10;;;;;;;10.10;4.10;;;;;;;5.04;79.26;98865.52;102870;1347;75501;-74
2021/12/10 11:27:40;;;;;;;8.50;4.90;;;;;;;4.94;79.41;98870.77;102855;1347;71683;-74
2021/12/10 11:30:38;;;;;;;7.70;4.10;;;;;;;4.87;79.84;98866.40;102862;1347;72770;-75
2021/12/10 11:33:16;;;;;;;12.10;4.60;;;;;;;4.82;79.82;98868.94;102826;1347;62683;-75
2021/12/10 11:35:50;;;;;;;6.30;3.50;;;;;;;4.75;79.58;98872.45;102747;1353;61431;-76
2021/12/10 11:38:28;;;;;;;8.50;4.90;;;;;;;4.67;79.60;98871.84;102801;1347;73349;-75
2021/12/10 11:41:03;;;;;;;8.80;3.70;;;;;;;4.61;80.24;98874.06;102747;1350;71291;-76
2021/12/10 11:43:44;;;;;;;8.40;4.00;;;;;;;4.56;80.08;98876.05;102154;1348;72416;-76
2021/12/10 11:46:46;;;;;;;6.20;3.50;;;;;;;4.51;80.61;98873.16;102891;1348;59856;-75
2021/12/10 11:49:35;;;;;;;7.60;3.50;;;;;;;4.46;80.72;98873.05;102797;1348;59680;-75
2021/12/10 11:52:14;;;;;;;8.00;3.90;;;;;;;4.42;80.91;98875.38;102324;1347;74350;-76
2021/12/10 11:54:55;;;;;;;7.80;4.50;;;;;;;4.40;81.18;98871.50;102870;1347;72511;-76
2021/12/10 11:57:28;;;;;;;5.40;3.00;;;;;;;4.38;80.04;98872.50;102857;1348;75069;-75
2021/12/10 12:00:02;;;;;;;10.10;3.60;;;;;;;4.37;80.27;98871.86;102845;1348;61319;-76
2021/12/10 12:02:35;;;;;;;8.60;5.50;;;;;;;4.34;80.45;98867.65;102769;1347;60365;-76
2021/12/10 12:05:12;;;;;;;8.40;4.20;;;;;;;4.31;80.94;98865.71;102896;1344;77435;-76
2021/12/10 12:07:44;;;;;;;8.00;4.00;;;;;;;4.28;80.68;98867.41;102752;1347;71215;-75
2021/12/10 12:10:40;;;;;;;11.70;4.80;;;;;;;4.24;81.15;98867.02;102713;1347;72991;-75
2021/12/10 12:13:24;;;;;;;9.20;4.70;;;;;;;4.21;81.70;98869.29;102040;1348;61263;-76